Time;durP1;ratioP1;P1;durP2;ratioP2;P2;SDS_P1;SDS_P2;PMS_P1;PMS_P2;Temp;Humidity;BMP_temperature;BMP_pressure;BME280_temperature;BME280_humidity;BME280_pressure;Samples;Min_cycle;Max_cycle;Signal;HPM_P1;HPM_P2
2022/07/31 00:00:19;;;;;;;8.07;5.20;;;;;;;21.91;59.92;101767.56;4958294;28;20438;-70
2022/07/31 00:02:45;;;;;;;7.38;4.88;;;;;;;21.91;60.02;101764.09;4950072;29;20386;-70
2022/07/31 00:05:11;;;;;;;9.07;4.88;;;;;;;21.92;59.70;101753.59;4949507;28;20502;-68
2022/07/31 00:07:36;;;;;;;7.53;4.97;;;;;;;21.94;60.21;101758.81;4949486;28;20027;-70
2022/07/31 00:10:03;;;;;;;9.07;4.68;;;;;;;21.87;60.49;101759.72;4948489;28;20525;-70
2022/07/31 00:12:29;;;;;;;7.50;5.10;;;;;;;21.89;61.01;101755.34;4947826;28;22763;-70
2022/07/31 00:14:54;;;;;;;7.57;4.90;;;;;;;21.93;60.08;101760.56;4950440;28;20109;-70
2022/07/31 00:17:20;;;;;;;11.48;5.30;;;;;;;21.94;59.99;101758.81;4949683;28;20111;-69
2022/07/31 00:19:45;;;;;;;8.45;5.22;;;;;;;21.85;60.26;101754.50;4950172;28;20118;-70
2022/07/31 00:22:12;;;;;;;9.52;5.22;;;;;;;21.81;60.21;101749.28;4949856;28;20474;-69
2022/07/31 00:24:37;;;;;;;9.43;5.57;;;;;;;21.85;60.15;101746.66;4952921;28;20039;-70
2022/07/31 00:27:03;;;;;;;8.85;5.55;;;;;;;21.77;60.30;101737.94;4949803;28;20046;-69
2022/07/31 00:29:29;;;;;;;10.88;5.57;;;;;;;21.83;59.76;101737.91;4953568;28;20031;-69
2022/07/31 00:31:55;;;;;;;8.38;5.38;;;;;;;21.75;59.18;101741.44;4950884;28;20035;-69
2022/07/31 00:34:21;;;;;;;8.45;5.07;;;;;;;21.80;59.06;101745.78;4953906;28;20045;-69
2022/07/31 00:36:46;;;;;;;9.52;5.40;;;;;;;21.81;59.49;101751.91;4951689;28;20031;-69
2022/07/31 00:39:12;;;;;;;7.80;5.18;;;;;;;21.77;59.50;101747.53;4951922;28;20045;-69
2022/07/31 00:41:42;;;;;;;7.32;5.07;;;;;;;21.78;58.87;101754.50;4948541;28;20084;-69
2022/07/31 00:44:12;;;;;;;7.78;4.82;;;;;;;21.80;58.70;101753.66;4948814;28;20536;-68
2022/07/31 00:46:39;;;;;;;8.02;4.70;;;;;;;21.73;58.47;101744.09;4953020;28;20019;-69
2022/07/31 00:49:06;;;;;;;9.05;4.60;;;;;;;21.69;58.30;101740.59;4945650;28;20085;-69
2022/07/31 00:51:32;;;;;;;7.82;4.78;;;;;;;21.70;57.59;101741.47;4946924;29;20046;-69
2022/07/31 00:53:58;;;;;;;7.13;4.70;;;;;;;21.68;58.14;101749.34;4940435;28;20105;-70
2022/07/31 00:56:24;;;;;;;9.35;5.10;;;;;;;21.68;58.07;101738.00;4950710;28;20039;-70
2022/07/31 00:58:50;;;;;;;8.32;5.03;;;;;;;21.64;58.08;101728.41;4951075;29;20065;-70
2022/07/31 01:01:15;;;;;;;9.48;4.97;;;;;;;21.62;58.03;101730.16;4947611;28;20383;-68
2022/07/31 01:03:41;;;;;;;8.98;4.28;;;;;;;21.63;57.61;101724.06;4950155;28;20036;-69
2022/07/31 01:06:06;;;;;;;7.50;4.47;;;;;;;21.63;57.64;101724.91;4947228;29;20035;-69
2022/07/31 01:08:32;;;;;;;9.70;5.10;;;;;;;21.62;57.43;101722.31;4948736;28;20121;-68
2022/07/31 01:11:20;;;;;;;9.68;6.40;;;;;;;21.69;57.57;101724.03;4942414;28;20096;-68
2022/07/31 01:13:55;;;;;;;13.10;5.90;;;;;;;21.64;57.53;101718.81;4947096;28;20035;-69
2022/07/31 01:16:23;;;;;;;12.65;7.10;;;;;;;21.58;57.71;101729.28;4951717;28;20017;-69
2022/07/31 01:18:50;;;;;;;12.10;6.22;;;;;;;21.57;57.45;101724.06;4947488;28;20102;-68
2022/07/31 01:21:22;;;;;;;11.88;6.25;;;;;;;21.55;57.85;101724.09;4947875;28;20117;-68
2022/07/31 01:24:21;;;;;;;10.65;4.93;;;;;;;21.62;57.71;101732.78;4950164;28;20126;-69
2022/07/31 01:26:48;;;;;;;7.60;4.68;;;;;;;21.45;58.03;101727.59;4950753;29;21446;-68
2022/07/31 01:29:31;;;;;;;7.47;4.38;;;;;;;21.45;58.32;101724.97;4948726;28;20083;-68
2022/07/31 01:32:05;;;;;;;6.85;4.80;;;;;;;21.44;58.55;101720.63;4947256;29;20015;-69
2022/07/31 01:34:48;;;;;;;7.57;5.30;;;;;;;21.45;58.70;101719.75;4947240;28;20023;-69
2022/07/31 01:37:22;;;;;;;8.85;4.72;;;;;;;21.43;58.91;101724.13;4944928;28;20081;-68
2022/07/31 01:40:00;;;;;;;7.90;4.70;;;;;;;21.44;58.85;101728.47;4949090;28;20035;-68
2022/07/31 01:42:27;;;;;;;8.02;4.90;;;;;;;21.37;59.70;101732.00;4943344;29;20023;-69
2022/07/31 01:44:58;;;;;;;8.27;4.50;;;;;;;21.33;59.56;101725.88;4949420;28;20573;-69
2022/07/31 01:47:25;;;;;;;7.30;4.60;;;;;;;21.28;60.20;101722.38;4950991;28;20384;-69
2022/07/31 01:49:53;;;;;;;7.63;4.68;;;;;;;21.26;59.42;101724.13;4948538;28;20031;-69
2022/07/31 01:52:21;;;;;;;7.53;4.72;;;;;;;21.21;60.70;101710.19;4944610;29;20069;-69
2022/07/31 01:54:48;;;;;;;8.15;4.47;;;;;;;21.21;60.35;101725.00;4946938;28;20078;-69
2022/07/31 01:57:15;;;;;;;7.53;4.40;;;;;;;21.15;60.41;101718.91;4949307;28;20505;-69
2022/07/31 01:59:42;;;;;;;5.90;4.40;;;;;;;21.13;60.00;101720.69;4951060;29;20039;-69
2022/07/31 02:02:08;;;;;;;8.52;4.10;;;;;;;21.08;60.30;101727.66;4949877;28;20031;-69
2022/07/31 02:04:34;;;;;;;7.85;4.32;;;;;;;21.03;60.51;101718.06;4951281;28;20024;-69
2022/07/31 02:07:04;;;;;;;8.52;4.50;;;;;;;21.06;59.94;101731.16;4948856;28;20027;-69
2022/07/31 02:09:33;;;;;;;7.90;4.30;;;;;;;21.02;60.34;101724.19;4948810;29;20031;-69
2022/07/31 02:11:59;;;;;;;;;;;;;;;21.24;59.14;101722.41;4952351;28;20019;-69
2022/07/31 02:14:25;;;;;;;6.03;4.18;;;;;;;21.02;59.90;101717.19;4948261;28;19919;-69
2022/07/31 02:16:51;;;;;;;7.60;4.00;;;;;;;21.00;60.06;101715.47;4951778;28;20039;-69
2022/07/31 02:19:19;;;;;;;5.50;3.97;;;;;;;20.95;59.95;101714.59;4950434;28;20413;-69
2022/07/31 02:21:45;;;;;;;8.38;4.22;;;;;;;20.94;60.48;101712.88;4951698;29;20027;-69
2022/07/31 02:24:10;;;;;;;6.90;4.10;;;;;;;20.94;60.35;101712.88;4949508;28;20397;-69
2022/07/31 02:26:38;;;;;;;7.93;4.72;;;;;;;20.88;60.37;101712.00;4946851;29;20043;-69
2022/07/31 02:29:05;;;;;;;8.65;4.80;;;;;;;20.83;61.17;101716.34;4951157;28;20097;-69
2022/07/31 02:31:32;;;;;;;8.98;4.65;;;;;;;20.82;60.72;101709.41;4955694;28;20030;-69
2022/07/31 02:33:58;;;;;;;6.75;4.60;;;;;;;20.83;60.88;101710.25;4947517;28;20134;-69
2022/07/31 02:36:24;;;;;;;7.45;4.93;;;;;;;20.79;60.93;101717.22;4951084;28;20122;-69
2022/07/31 02:38:52;;;;;;;13.30;5.00;;;;;;;20.81;61.11;101720.72;4947805;28;20027;-69
2022/07/31 02:41:20;;;;;;;8.75;4.70;;;;;;;20.77;61.51;101718.09;4956283;28;20042;-69
2022/07/31 02:43:46;;;;;;;9.35;5.32;;;;;;;20.74;62.19;101715.47;4954847;28;20031;-70
2022/07/31 02:46:12;;;;;;;9.77;4.75;;;;;;;20.72;61.87;101718.09;4958555;28;20027;-69
2022/07/31 02:48:39;;;;;;;8.13;5.30;;;;;;;20.69;62.02;101715.50;4944169;28;20106;-69
2022/07/31 02:51:04;;;;;;;7.97;4.85;;;;;;;20.66;62.65;101715.47;4951838;28;20039;-69
2022/07/31 02:53:30;;;;;;;8.70;5.25;;;;;;;20.60;62.81;101705.91;4949264;28;20037;-69
2022/07/31 02:55:57;;;;;;;11.07;5.40;;;;;;;20.58;63.06;101704.19;4950459;28;20023;-69
2022/07/31 02:58:23;;;;;;;8.73;5.30;;;;;;;20.56;63.03;101703.28;4944604;28;20115;-68
2022/07/31 03:00:57;;;;;;;9.25;5.50;;;;;;;20.62;62.84;101698.94;4944032;29;20509;-68
2022/07/31 03:03:23;;;;;;;10.50;5.68;;;;;;;20.55;63.75;101696.31;4948208;29;20023;-68
2022/07/31 03:05:48;;;;;;;9.32;5.70;;;;;;;20.58;63.67;101706.78;4945566;28;20065;-68
2022/07/31 03:08:13;;;;;;;9.23;6.00;;;;;;;20.56;64.16;101700.66;4950314;28;20067;-69
2022/07/31 03:10:39;;;;;;;8.35;5.80;;;;;;;20.49;63.84;101691.97;4947969;28;20074;-69
2022/07/31 03:13:05;;;;;;;10.98;6.20;;;;;;;20.51;64.20;101692.84;4947242;28;20027;-69
2022/07/31 03:15:32;;;;;;;10.95;6.50;;;;;;;20.49;64.21;101696.31;4942171;28;20031;-69
2022/07/31 03:17:58;;;;;;;9.50;6.00;;;;;;;20.47;64.09;101693.72;4948829;28;20038;-69
2022/07/31 03:20:23;;;;;;;9.90;6.40;;;;;;;20.47;64.26;101690.22;4945453;28;20027;-68
2022/07/31 03:22:50;;;;;;;10.45;6.13;;;;;;;20.42;64.28;101678.88;4952962;28;20189;-68
2022/07/31 03:25:15;;;;;;;7.95;6.00;;;;;;;20.41;64.87;101683.22;4947968;29;20374;-69
2022/07/31 03:27:41;;;;;;;9.73;6.53;;;;;;;20.40;65.20;101686.72;4945540;28;20042;-68
2022/07/31 03:30:15;;;;;;;14.80;6.47;;;;;;;20.42;64.40;101689.31;4945843;28;20035;-69
2022/07/31 03:32:41;;;;;;;9.68;6.45;;;;;;;20.38;65.01;101684.94;4948167;28;20095;-69
2022/07/31 03:35:07;;;;;;;9.30;6.07;;;;;;;20.31;65.44;101682.34;4947374;28;20437;-70
2022/07/31 03:37:32;;;;;;;7.65;6.10;;;;;;;20.29;65.45;101676.25;4946639;28;20031;-68
2022/07/31 03:39:58;;;;;;;7.13;5.88;;;;;;;20.32;65.69;101673.66;4947191;28;20478;-69
2022/07/31 03:42:24;;;;;;;11.93;6.03;;;;;;;20.22;66.09;101676.25;4948734;28;20490;-69
2022/07/31 03:44:50;;;;;;;8.05;5.97;;;;;;;20.28;65.61;101681.47;4946863;28;20043;-68
2022/07/31 03:47:15;;;;;;;10.95;7.07;;;;;;;20.20;66.03;101681.44;4948527;29;20031;-68
2022/07/31 03:49:41;;;;;;;12.48;6.90;;;;;;;20.21;65.91;101685.84;4946042;28;20494;-69
2022/07/31 03:52:07;;;;;;;10.32;6.53;;;;;;;20.19;65.92;101679.72;4943250;28;20467;-68
2022/07/31 03:54:32;;;;;;;10.60;7.57;;;;;;;20.15;66.17;101680.59;4947657;28;20058;-69
2022/07/31 03:56:58;;;;;;;12.15;7.82;;;;;;;20.18;66.62;101680.59;4948265;28;20059;-69
2022/07/31 03:59:26;;;;;;;10.20;7.05;;;;;;;20.17;66.40;101678.84;4951877;28;20054;-69
2022/07/31 04:01:51;;;;;;;12.32;8.02;;;;;;;20.19;66.15;101687.53;4953020;28;20039;-69
2022/07/31 04:04:17;;;;;;;11.63;8.40;;;;;;;20.14;67.08;101693.63;4952244;28;20028;-69
2022/07/31 04:06:43;;;;;;;15.73;8.88;;;;;;;20.15;66.66;101693.66;4949009;28;20178;-69
2022/07/31 04:09:08;;;;;;;10.23;8.55;;;;;;;20.14;66.30;101685.78;4953703;28;20046;-69
2022/07/31 04:11:33;;;;;;;9.73;8.40;;;;;;;20.13;66.52;101691.88;4954144;28;20050;-69
2022/07/31 04:13:59;;;;;;;14.13;8.55;;;;;;;20.09;66.84;101694.50;4949042;28;20042;-69
2022/07/31 04:16:24;;;;;;;12.98;8.70;;;;;;;20.10;67.12;101687.53;4955368;28;20085;-69
2022/07/31 04:18:50;;;;;;;12.13;8.63;;;;;;;20.10;67.24;101690.16;4950140;28;21096;-69
2022/07/31 04:21:15;;;;;;;16.67;8.80;;;;;;;20.12;66.71;101695.38;4950392;28;20039;-69
2022/07/31 04:23:40;;;;;;;14.48;9.55;;;;;;;20.08;67.35;101689.25;4952762;28;20090;-69
2022/07/31 04:26:06;;;;;;;10.50;8.82;;;;;;;20.02;67.56;101697.09;4951268;28;20110;-69
2022/07/31 04:28:32;;;;;;;14.18;9.10;;;;;;;20.06;67.54;101697.09;4950695;28;20543;-69
2022/07/31 04:30:57;;;;;;;15.32;10.15;;;;;;;20.02;67.34;101695.38;4952053;28;20070;-69
2022/07/31 04:33:23;;;;;;;15.52;10.07;;;;;;;20.04;67.65;101697.97;4949855;29;20280;-69
2022/07/31 04:35:48;;;;;;;16.73;9.85;;;;;;;19.98;68.14;101695.34;4952773;28;20096;-68
2022/07/31 04:38:15;;;;;;;13.00;9.65;;;;;;;19.97;68.10;101699.69;4953279;28;20031;-68
2022/07/31 04:40:41;;;;;;;19.98;9.82;;;;;;;19.97;68.35;101702.31;4953056;28;20750;-69
2022/07/31 04:43:07;;;;;;;13.98;9.50;;;;;;;19.96;67.75;101686.63;4959639;28;20092;-69
2022/07/31 04:45:32;;;;;;;14.32;9.85;;;;;;;19.97;68.03;101693.63;4947819;28;20027;-69
2022/07/31 04:47:57;;;;;;;13.73;9.73;;;;;;;19.99;67.68;101705.78;4952998;28;20055;-70
2022/07/31 04:50:23;;;;;;;10.90;9.40;;;;;;;20.00;67.79;101691.00;4953447;28;20038;-69
2022/07/31 04:52:48;;;;;;;15.02;9.50;;;;;;;20.00;67.62;101685.78;4954138;28;20031;-69
2022/07/31 04:55:14;;;;;;;11.25;9.65;;;;;;;19.98;68.19;101697.97;4950137;28;20482;-69
2022/07/31 04:57:39;;;;;;;10.95;9.45;;;;;;;20.01;68.20;101695.34;4955149;28;20054;-69
2022/07/31 05:00:06;;;;;;;11.20;8.98;;;;;;;20.00;67.71;101701.44;4952522;28;20347;-68
2022/07/31 05:02:31;;;;;;;10.75;8.70;;;;;;;20.01;68.41;101695.34;4946875;29;20223;-68
2022/07/31 05:04:56;;;;;;;10.68;8.80;;;;;;;19.97;68.19;101689.25;4950937;28;20482;-69
2022/07/31 05:07:22;;;;;;;10.80;8.38;;;;;;;19.96;69.00;101692.75;4953813;28;20035;-68
2022/07/31 05:09:47;;;;;;;11.77;8.32;;;;;;;19.97;68.94;101689.25;4954636;28;20031;-69
2022/07/31 05:12:13;;;;;;;12.40;8.68;;;;;;;20.00;69.21;101691.00;4945927;29;20042;-69
2022/07/31 05:14:38;;;;;;;14.10;8.75;;;;;;;19.94;70.49;101696.19;4948120;29;20031;-69
2022/07/31 05:17:03;;;;;;;10.27;8.13;;;;;;;19.94;70.32;101678.78;4951504;28;20116;-69
2022/07/31 05:19:29;;;;;;;11.85;8.30;;;;;;;19.91;71.00;101684.03;4948871;28;20474;-69
2022/07/31 05:21:56;;;;;;;10.52;7.55;;;;;;;19.92;70.81;101677.94;4946801;28;20031;-68
2022/07/31 05:24:22;;;;;;;13.93;8.00;;;;;;;19.89;71.16;101683.13;4944438;29;20044;-68
2022/07/31 05:26:47;;;;;;;8.60;7.45;;;;;;;19.88;70.95;101683.13;4951275;28;20032;-69
2022/07/31 05:29:13;;;;;;;9.20;7.22;;;;;;;19.88;72.07;101672.69;4944489;28;20034;-70
2022/07/31 05:31:38;;;;;;;10.35;7.50;;;;;;;19.88;72.05;101670.94;4946999;28;20064;-69
2022/07/31 05:34:03;;;;;;;9.55;7.15;;;;;;;19.87;71.74;101669.22;4952897;28;20552;-70
2022/07/31 05:36:29;;;;;;;8.38;6.97;;;;;;;19.86;71.89;101666.59;4947141;28;20077;-69
2022/07/31 05:38:54;;;;;;;10.98;7.07;;;;;;;19.87;72.15;101661.38;4947721;28;20042;-69
2022/07/31 05:41:19;;;;;;;9.27;6.82;;;;;;;19.83;71.72;101662.22;4946591;29;20036;-70
2022/07/31 05:43:45;;;;;;;10.30;6.65;;;;;;;19.82;72.51;101669.19;4945203;28;20042;-70
2022/07/31 05:46:13;;;;;;;10.20;7.18;;;;;;;19.82;71.99;101671.81;4948289;28;20027;-69
2022/07/31 05:48:39;;;;;;;8.30;6.50;;;;;;;19.82;73.48;101677.03;4949916;28;20059;-69
2022/07/31 05:51:09;;;;;;;12.30;6.55;;;;;;;19.82;72.56;101682.25;4951349;28;20033;-69
2022/07/31 05:53:34;;;;;;;11.23;6.30;;;;;;;19.81;73.33;101669.19;4946323;29;20031;-69
2022/07/31 05:56:00;;;;;;;7.63;5.90;;;;;;;19.84;72.51;101671.84;4952607;28;20040;-68
2022/07/31 05:58:25;;;;;;;10.98;5.68;;;;;;;19.83;72.88;101672.66;4947954;28;20055;-67
2022/07/31 06:00:50;;;;;;;8.35;5.75;;;;;;;19.83;72.77;101681.38;4948919;28;20189;-68
2022/07/31 06:03:22;;;;;;;7.53;5.60;;;;;;;19.85;72.72;101675.31;4950390;28;20073;-68
2022/07/31 06:05:47;;;;;;;9.32;5.43;;;;;;;19.78;73.29;101672.69;4945216;28;20035;-68
2022/07/31 06:08:13;;;;;;;9.13;5.22;;;;;;;19.83;73.30;101680.50;4950890;28;20125;-69
2022/07/31 06:10:38;;;;;;;9.15;5.10;;;;;;;19.77;73.50;101673.53;4948597;28;20050;-68
2022/07/31 06:13:04;;;;;;;8.52;5.10;;;;;;;19.86;73.25;101682.28;4950854;28;20118;-69
2022/07/31 06:15:30;;;;;;;6.50;4.88;;;;;;;19.82;73.38;101687.47;4946711;28;20114;-69
2022/07/31 06:17:56;;;;;;;9.25;5.70;;;;;;;19.87;73.65;101676.19;4948094;28;20118;-69
2022/07/31 06:20:21;;;;;;;6.95;5.00;;;;;;;19.88;73.60;101667.47;4947737;28;20362;-69
2022/07/31 06:22:46;;;;;;;7.90;4.97;;;;;;;19.90;74.50;101678.78;4945967;28;20051;-69
2022/07/31 06:25:12;;;;;;;8.60;4.70;;;;;;;19.92;74.93;101674.44;4954311;28;20065;-69
2022/07/31 06:27:37;;;;;;;6.03;4.57;;;;;;;19.92;74.17;101677.06;4942223;28;20034;-69
2022/07/31 06:30:04;;;;;;;8.73;4.95;;;;;;;19.93;74.10;101671.84;4947094;29;20031;-69
2022/07/31 06:32:33;;;;;;;7.88;4.95;;;;;;;19.93;75.09;101666.63;4950187;28;20466;-69
2022/07/31 06:34:59;;;;;;;;;;;;;;;20.11;72.59;101663.16;4945266;28;20104;-70
2022/07/31 06:37:25;;;;;;;6.03;4.20;;;;;;;19.99;74.32;101665.75;4946511;29;20561;-70
2022/07/31 06:39:51;;;;;;;9.15;4.25;;;;;;;19.98;75.49;101669.25;4947585;28;20410;-69
2022/07/31 06:42:21;;;;;;;7.47;4.68;;;;;;;20.01;75.36;101661.41;4951240;28;20028;-70
2022/07/31 06:44:47;;;;;;;6.85;4.32;;;;;;;20.06;75.83;101659.69;4949688;28;20045;-70
2022/07/31 06:47:14;;;;;;;7.60;4.55;;;;;;;20.06;75.84;101662.28;4943906;28;20035;-70
2022/07/31 06:49:39;;;;;;;5.38;4.50;;;;;;;20.00;75.74;101664.88;4944450;28;20043;-70
2022/07/31 06:52:05;;;;;;;5.78;4.47;;;;;;;20.05;75.77;101664.03;4946564;28;20050;-69
2022/07/31 06:54:30;;;;;;;9.13;4.80;;;;;;;20.06;75.38;101670.13;4949187;28;20030;-68
2022/07/31 06:56:56;;;;;;;6.70;4.70;;;;;;;20.06;75.67;101667.50;4948778;28;20028;-69
2022/07/31 06:59:21;;;;;;;7.15;4.28;;;;;;;20.11;75.53;101664.91;4950374;28;20065;-69
2022/07/31 07:01:47;;;;;;;7.53;4.68;;;;;;;20.10;75.03;101669.28;4946745;28;20031;-68
2022/07/31 07:04:12;;;;;;;9.05;4.85;;;;;;;20.09;75.74;101671.00;4949427;28;20039;-68
2022/07/31 07:06:38;;;;;;;9.23;4.70;;;;;;;20.14;75.19;101672.72;4946526;29;20126;-69
2022/07/31 07:09:03;;;;;;;6.85;4.90;;;;;;;20.16;75.82;101671.88;4949858;28;20393;-69
2022/07/31 07:11:29;;;;;;;7.50;4.65;;;;;;;20.17;76.08;101662.31;4956142;28;20035;-69
2022/07/31 07:13:54;;;;;;;8.93;5.32;;;;;;;20.21;75.54;101675.38;4947119;28;20035;-69
2022/07/31 07:16:20;;;;;;;7.80;5.07;;;;;;;20.20;76.62;101673.63;4948608;28;20548;-71
2022/07/31 07:18:46;;;;;;;8.40;5.35;;;;;;;20.25;75.59;101673.63;4948831;28;20489;-70
2022/07/31 07:21:11;;;;;;;8.90;6.10;;;;;;;20.23;75.45;101668.41;4944543;28;20106;-70
2022/07/31 07:23:37;;;;;;;8.95;5.80;;;;;;;20.24;76.26;101659.69;4943513;28;20506;-70
2022/07/31 07:26:03;;;;;;;10.07;5.70;;;;;;;20.30;76.20;101664.94;4944793;28;20381;-70
2022/07/31 07:28:29;;;;;;;8.70;5.78;;;;;;;20.35;76.01;101660.59;4949306;28;20034;-71
2022/07/31 07:30:54;;;;;;;11.60;6.43;;;;;;;20.40;76.10;101662.34;4947245;28;20041;-70
2022/07/31 07:33:19;;;;;;;11.05;6.18;;;;;;;20.40;75.84;101659.72;4945226;28;20039;-69
2022/07/31 07:35:45;;;;;;;10.32;6.63;;;;;;;20.48;75.78;101665.84;4946742;28;20118;-70
2022/07/31 07:38:10;;;;;;;9.50;6.47;;;;;;;20.52;75.74;101662.38;4945291;28;20122;-70
2022/07/31 07:40:36;;;;;;;11.48;7.70;;;;;;;20.55;75.48;101663.22;4949283;28;20081;-69
2022/07/31 07:43:01;;;;;;;14.25;8.20;;;;;;;20.58;75.98;101667.59;4945643;28;20126;-69
2022/07/31 07:45:26;;;;;;;13.27;8.32;;;;;;;20.64;75.56;101654.53;4946997;28;20016;-69
2022/07/31 07:47:52;;;;;;;14.40;8.45;;;;;;;20.65;76.21;101643.19;4948627;28;20457;-69
2022/07/31 07:50:17;;;;;;;12.10;7.78;;;;;;;20.73;76.23;101646.66;4945297;28;20043;-70
2022/07/31 07:52:43;;;;;;;10.23;7.30;;;;;;;20.79;75.99;101649.25;4948331;28;20444;-70
2022/07/31 07:55:11;;;;;;;15.50;8.07;;;;;;;20.81;75.79;101646.63;4947252;28;20035;-69
2022/07/31 07:57:36;;;;;;;13.05;8.70;;;;;;;20.83;75.28;101643.16;4947431;28;20035;-69
2022/07/31 08:00:08;;;;;;;11.38;8.10;;;;;;;20.85;75.45;101644.03;4945880;28;20132;-69
2022/07/31 08:02:34;;;;;;;15.25;8.77;;;;;;;20.89;75.46;101653.59;4948103;28;20046;-70
2022/07/31 08:05:00;;;;;;;11.80;8.32;;;;;;;20.88;75.67;101649.25;4945638;28;20469;-71
2022/07/31 08:07:34;;;;;;;10.90;8.85;;;;;;;20.94;75.64;101650.13;4946700;28;20473;-69
2022/07/31 08:10:01;;;;;;;16.50;8.93;;;;;;;20.96;75.79;101651.84;4943770;29;20035;-70
2022/07/31 08:12:27;;;;;;;12.80;9.00;;;;;;;20.91;75.47;101648.38;4946948;28;20035;-68
2022/07/31 08:14:53;;;;;;;14.70;9.25;;;;;;;20.93;74.97;101648.34;4945536;28;20023;-69
2022/07/31 08:17:19;;;;;;;14.18;9.18;;;;;;;20.94;75.29;101647.50;4947134;28;20046;-69
2022/07/31 08:19:45;;;;;;;14.35;9.00;;;;;;;20.98;75.84;101650.09;4946305;28;20118;-68
2022/07/31 08:22:11;;;;;;;14.38;9.35;;;;;;;21.01;75.40;101647.50;4938432;28;20145;-70
2022/07/31 08:24:36;;;;;;;12.65;8.70;;;;;;;21.04;75.64;101651.81;4945366;28;20102;-70
2022/07/31 08:29:46;;;;;;;11.88;8.82;;;;;;;21.08;75.21;101637.88;4952089;28;20101;-70
2022/07/31 08:32:12;;;;;;;11.63;9.02;;;;;;;21.13;75.15;101634.38;4951771;28;20031;-69
2022/07/31 08:34:38;;;;;;;10.90;9.05;;;;;;;21.16;75.65;101644.81;4949334;28;20038;-69
2022/07/31 08:37:05;;;;;;;11.52;9.05;;;;;;;21.17;75.45;101645.69;4953617;28;20024;-70
2022/07/31 08:39:31;;;;;;;13.10;9.05;;;;;;;21.15;75.64;101642.22;4949288;28;20103;-70
2022/07/31 08:41:57;;;;;;;13.32;9.15;;;;;;;21.19;75.84;101645.69;4949993;28;20035;-69
2022/07/31 08:44:22;;;;;;;13.57;8.82;;;;;;;21.21;75.32;101650.03;4948967;28;20478;-71
2022/07/31 08:46:48;;;;;;;10.38;8.50;;;;;;;21.20;74.90;101645.69;4950420;29;20055;-69
2022/07/31 08:49:17;;;;;;;12.45;8.50;;;;;;;21.23;75.86;101648.28;4948180;28;20563;-71
2022/07/31 08:51:43;;;;;;;;;;;;;;;21.36;74.38;101643.94;4962386;28;20042;-70
2022/07/31 08:54:09;;;;;;;14.68;8.77;;;;;;;21.27;75.89;101646.53;4951983;28;19923;-69
2022/07/31 08:56:39;;;;;;;11.40;8.60;;;;;;;21.24;76.54;101651.78;4951222;28;20031;-70
2022/07/31 08:59:06;;;;;;;10.98;9.18;;;;;;;21.24;75.44;101652.66;4950015;28;20031;-69
2022/07/31 09:01:33;;;;;;;16.52;8.85;;;;;;;21.24;76.07;101663.13;4952250;29;20035;-70
2022/07/31 09:03:59;;;;;;;10.60;8.52;;;;;;;21.26;75.13;101657.88;4947093;28;20058;-69
2022/07/31 09:06:25;;;;;;;11.30;8.27;;;;;;;21.24;76.74;101657.88;4952458;28;20081;-70
2022/07/31 09:08:51;;;;;;;10.32;8.45;;;;;;;21.28;77.16;101654.34;4946426;28;20473;-69
2022/07/31 09:11:17;;;;;;;11.63;8.88;;;;;;;21.25;76.25;101641.31;4952614;28;20027;-68
2022/07/31 09:13:57;;;;;;;12.27;8.82;;;;;;;21.33;75.25;101641.31;4952479;28;20072;-68
2022/07/31 09:16:23;;;;;;;12.15;9.02;;;;;;;21.30;75.76;101634.34;4948457;28;20141;-69
2022/07/31 09:19:03;;;;;;;12.45;8.90;;;;;;;21.32;75.22;101637.81;4942681;28;20529;-69
2022/07/31 09:21:40;;;;;;;10.38;8.23;;;;;;;21.34;76.82;101633.44;4946301;28;20428;-69
2022/07/31 09:24:09;;;;;;;10.73;8.80;;;;;;;21.33;76.17;101636.94;4951154;28;20537;-69
2022/07/31 09:26:36;;;;;;;12.98;8.68;;;;;;;21.36;77.12;101639.56;4957083;28;20113;-68
2022/07/31 09:29:07;;;;;;;11.80;8.10;;;;;;;21.35;76.77;101637.78;4951059;28;20038;-68
2022/07/31 09:31:33;;;;;;;10.23;7.45;;;;;;;21.40;76.70;101638.66;4947665;28;20031;-73
2022/07/31 09:34:00;;;;;;;9.98;7.63;;;;;;;21.42;76.16;101636.91;4950162;28;20484;-69
2022/07/31 09:36:26;;;;;;;10.70;7.47;;;;;;;21.46;77.14;101636.88;4948909;28;20082;-69
2022/07/31 09:38:52;;;;;;;9.75;7.18;;;;;;;21.51;77.09;101635.13;4947680;28;20559;-69
2022/07/31 09:41:19;;;;;;;12.45;7.68;;;;;;;21.52;77.59;101629.88;4949734;28;20028;-69
2022/07/31 09:44:01;;;;;;;8.73;6.95;;;;;;;21.61;76.44;101631.59;4951207;28;20035;-69
2022/07/31 09:46:41;;;;;;;10.15;7.15;;;;;;;21.71;76.38;101641.13;4958936;28;20445;-69
2022/07/31 09:49:07;;;;;;;10.00;7.00;;;;;;;21.74;76.36;101635.00;4953176;28;20414;-69
2022/07/31 09:51:39;;;;;;;9.00;7.22;;;;;;;21.78;76.02;101619.28;4951454;28;20151;-69
2022/07/31 09:54:05;;;;;;;9.75;7.07;;;;;;;21.81;75.75;101634.09;4951728;28;20100;-69
2022/07/31 09:56:32;;;;;;;10.85;7.32;;;;;;;21.81;74.89;101634.97;4947676;28;20458;-69
2022/07/31 09:58:58;;;;;;;11.00;6.85;;;;;;;21.85;75.02;101630.59;4948116;29;20088;-69
2022/07/31 10:01:24;;;;;;;9.75;6.40;;;;;;;21.88;75.45;101635.78;4947997;28;20055;-68
2022/07/31 10:03:51;;;;;;;8.40;6.40;;;;;;;21.92;75.12;101627.91;4950948;28;20718;-69
2022/07/31 10:06:18;;;;;;;8.60;6.38;;;;;;;21.93;75.39;101624.41;4947883;28;20502;-69
2022/07/31 10:08:45;;;;;;;8.60;7.03;;;;;;;21.94;74.95;101627.88;4945806;29;20122;-68
2022/07/31 10:11:12;;;;;;;9.68;6.80;;;;;;;21.95;74.68;101627.00;4944488;28;20027;-68
2022/07/31 10:13:43;;;;;;;9.80;6.90;;;;;;;21.95;74.46;101630.50;4944124;28;20031;-69
2022/07/31 10:16:09;;;;;;;9.27;6.55;;;;;;;22.06;74.88;101629.56;4949440;28;20466;-70
2022/07/31 10:18:38;;;;;;;9.98;6.30;;;;;;;22.07;74.61;101626.91;4945616;28;20154;-69
2022/07/31 10:21:05;;;;;;;8.15;5.32;;;;;;;22.13;74.47;101626.03;4945954;29;20053;-70
2022/07/31 10:23:33;;;;;;;8.95;5.60;;;;;;;22.15;74.89;101616.44;4947722;28;20078;-69
2022/07/31 10:26:00;;;;;;;8.10;5.63;;;;;;;22.22;75.59;101625.97;4950272;28;20134;-69
2022/07/31 10:28:28;;;;;;;7.90;5.63;;;;;;;22.20;75.45;101609.38;4946579;28;20039;-68
2022/07/31 10:30:54;;;;;;;7.97;5.78;;;;;;;22.21;74.14;101613.78;4947492;28;20027;-69
2022/07/31 10:33:20;;;;;;;7.32;5.10;;;;;;;22.26;74.09;101606.72;4947943;29;20035;-67
2022/07/31 10:36:06;;;;;;;6.78;4.80;;;;;;;22.31;74.55;101618.03;4947360;28;20066;-69
2022/07/31 10:38:55;;;;;;;9.70;4.80;;;;;;;22.38;73.64;101613.59;4948798;28;20070;-69
2022/07/31 10:41:45;;;;;;;7.53;4.68;;;;;;;22.43;74.14;101611.81;4946618;28;20028;-69
2022/07/31 10:44:21;;;;;;;8.05;4.60;;;;;;;22.43;74.49;101602.19;4941911;28;20027;-68
2022/07/31 10:46:47;;;;;;;10.57;4.53;;;;;;;22.47;74.07;101605.66;4942869;28;20015;-68
2022/07/31 10:49:12;;;;;;;7.00;4.43;;;;;;;22.46;73.45;101598.69;4947577;29;20046;-69
2022/07/31 10:51:50;;;;;;;6.93;4.30;;;;;;;22.52;73.45;101605.63;4947695;28;20101;-69
2022/07/31 10:54:15;;;;;;;7.97;4.17;;;;;;;22.51;73.29;101598.63;4946290;29;20379;-68
2022/07/31 10:56:43;;;;;;;9.82;4.20;;;;;;;22.48;72.83;101608.28;4948279;28;20378;-69
2022/07/31 10:59:09;;;;;;;7.82;4.40;;;;;;;22.44;72.32;101601.31;4943974;28;20035;-69
2022/07/31 11:01:49;;;;;;;6.97;4.07;;;;;;;22.46;72.66;101601.31;4947102;28;20035;-69
2022/07/31 11:04:26;;;;;;;7.00;4.10;;;;;;;22.44;72.68;101598.69;4939209;28;20425;-69
2022/07/31 11:06:52;;;;;;;6.25;4.13;;;;;;;22.46;72.94;101596.94;4947149;29;20405;-69
2022/07/31 11:09:26;;;;;;;5.63;3.85;;;;;;;22.46;73.16;101582.97;4942812;28;20031;-69
2022/07/31 11:11:51;;;;;;;7.45;4.07;;;;;;;22.49;73.03;101580.31;4944277;29;20023;-69
2022/07/31 11:14:17;;;;;;;5.32;3.80;;;;;;;22.54;73.24;101570.66;4943594;28;20032;-69
2022/07/31 11:16:53;;;;;;;6.45;3.80;;;;;;;22.64;72.49;101574.94;4950078;28;20500;-68
2022/07/31 11:19:18;;;;;;;5.78;3.70;;;;;;;22.64;72.48;101576.69;4942959;28;20724;-68
2022/07/31 11:21:44;;;;;;;6.38;3.50;;;;;;;22.67;71.85;101581.88;4946636;28;20043;-69
2022/07/31 11:24:22;;;;;;;5.55;3.45;;;;;;;22.70;71.43;101581.88;4945166;28;20102;-70